createdAt,value
2023-03-29T00:00:24.124Z,10.40
2023-03-29T00:01:36.209Z,10.40
2023-03-29T00:02:38.549Z,10.40
2023-03-29T00:03:42.563Z,10.40
2023-03-29T00:04:45.246Z,10.40
2023-03-29T00:05:47.989Z,10.40
2023-03-29T00:06:50.503Z,10.40
2023-03-29T00:07:54.518Z,10.50
2023-03-29T00:08:56.345Z,10.50
2023-03-29T00:09:58.103Z,10.50
2023-03-29T00:11:01.283Z,10.50
2023-03-29T00:12:05.524Z,10.60
2023-03-29T00:13:09.718Z,10.60
2023-03-29T00:14:12.900Z,10.60
2023-03-29T00:15:14.819Z,10.60
2023-03-29T00:16:17.734Z,10.60
2023-03-29T00:17:19.615Z,10.60
2023-03-29T00:18:21.434Z,10.60
2023-03-29T00:19:23.712Z,10.60
2023-03-29T00:20:25.827Z,10.70
2023-03-29T00:21:27.532Z,10.60
2023-03-29T00:22:29.483Z,10.60
2023-03-29T00:23:31.306Z,10.70
2023-03-29T00:24:33.374Z,10.60
2023-03-29T00:25:35.201Z,10.60
2023-03-29T00:26:36.968Z,10.60
2023-03-29T00:27:39.105Z,10.60
2023-03-29T00:28:41.146Z,10.60
2023-03-29T00:29:42.839Z,10.60
2023-03-29T00:30:44.810Z,10.60
2023-03-29T00:31:52.878Z,10.60
2023-03-29T00:32:55.020Z,10.60
2023-03-29T00:33:56.825Z,10.60
2023-03-29T00:35:00.836Z,10.50
2023-03-29T00:36:04.527Z,10.50
2023-03-29T00:37:08.666Z,10.50
2023-03-29T00:38:10.997Z,10.40
2023-03-29T00:39:13.010Z,10.50
2023-03-29T00:40:15.422Z,10.40
2023-03-29T00:41:17.338Z,10.40
2023-03-29T00:42:19.315Z,10.40
2023-03-29T00:43:21.301Z,10.40
2023-03-29T00:45:14.511Z,10.40
2023-03-29T00:46:16.295Z,10.30
2023-03-29T00:47:19.415Z,10.30
2023-03-29T00:48:24.334Z,10.30
2023-03-29T00:49:26.337Z,10.30
2023-03-29T00:50:37.933Z,10.30
2023-03-29T00:51:42.781Z,10.30
2023-03-29T00:52:48.652Z,10.30
2023-03-29T00:53:56.106Z,10.30
2023-03-29T00:55:01.481Z,10.30
2023-03-29T00:56:18.392Z,10.30
2023-03-29T00:57:22.318Z,10.40
2023-03-29T00:58:33.858Z,10.30
2023-03-29T00:59:36.264Z,10.30
2023-03-29T01:00:44.906Z,10.30
2023-03-29T01:02:14.064Z,10.30
2023-03-29T01:03:24.617Z,10.30
2023-03-29T01:04:36.239Z,10.30
2023-03-29T01:05:42.010Z,10.30
2023-03-29T01:06:56.402Z,10.30
2023-03-29T01:08:08.316Z,10.30
2023-03-29T01:09:13.713Z,10.30
2023-03-29T01:10:22.475Z,10.30
2023-03-29T01:11:28.945Z,10.30
2023-03-29T01:12:36.013Z,10.30
2023-03-29T01:13:49.785Z,10.30
2023-03-29T01:15:06.363Z,10.30
2023-03-29T01:16:10.457Z,10.30
2023-03-29T01:17:12.907Z,10.20
2023-03-29T01:18:15.036Z,10.20
2023-03-29T01:19:21.441Z,10.20
2023-03-29T01:20:35.664Z,10.20
2023-03-29T01:21:44.456Z,10.20
2023-03-29T01:22:46.086Z,10.20
2023-03-29T01:24:06.732Z,10.20
2023-03-29T01:25:26.974Z,10.20
2023-03-29T01:26:36.849Z,10.20
2023-03-29T01:27:56.687Z,10.20
2023-03-29T01:29:21.791Z,10.20
2023-03-29T01:30:31.970Z,10.20
2023-03-29T01:31:42.104Z,10.10
2023-03-29T01:33:02.062Z,10.10
2023-03-29T01:34:18.614Z,10.00
2023-03-29T01:35:27.142Z,10.00
2023-03-29T01:36:39.614Z,9.90
2023-03-29T01:38:01.431Z,9.90
2023-03-29T01:39:07.081Z,9.80
2023-03-29T01:40:09.371Z,10.00
2023-03-29T01:41:12.306Z,9.80
2023-03-29T01:42:24.036Z,9.90
2023-03-29T01:43:49.873Z,9.90
2023-03-29T01:45:08.898Z,9.80
2023-03-29T01:46:26.601Z,9.80
2023-03-29T01:47:42.485Z,9.80
2023-03-29T01:48:54.807Z,9.90
2023-03-29T01:50:20.432Z,9.90
2023-03-29T01:51:41.478Z,9.80
2023-03-29T01:53:08.573Z,9.80
2023-03-29T01:54:19.271Z,9.80
2023-03-29T01:55:26.519Z,9.80
2023-03-29T01:56:29.789Z,9.80
2023-03-29T01:57:33.525Z,9.70
2023-03-29T01:58:40.908Z,9.70
2023-03-29T01:59:44.805Z,9.70
2023-03-29T02:00:47.599Z,9.60
2023-03-29T02:01:55.488Z,9.70
2023-03-29T02:03:01.012Z,9.60
2023-03-29T02:04:07.052Z,9.60
2023-03-29T02:05:10.648Z,9.60
2023-03-29T02:06:16.547Z,9.60
2023-03-29T02:07:24.670Z,9.60
2023-03-29T02:08:27.818Z,9.60
2023-03-29T02:09:30.358Z,9.50
2023-03-29T02:10:34.320Z,9.50
2023-03-29T02:11:36.949Z,9.50
2023-03-29T02:12:41.421Z,9.60
2023-03-29T02:13:43.458Z,9.50
2023-03-29T02:14:45.311Z,9.50
2023-03-29T02:15:48.518Z,9.50
2023-03-29T02:16:50.240Z,9.50
2023-03-29T02:17:52.202Z,9.60
2023-03-29T02:18:57.979Z,9.60
2023-03-29T02:20:15.351Z,9.50
2023-03-29T02:21:43.594Z,9.50
2023-03-29T02:23:23.701Z,9.60
2023-03-29T02:24:26.399Z,9.60
2023-03-29T02:25:29.805Z,9.50
2023-03-29T02:26:31.805Z,9.50
2023-03-29T02:27:33.819Z,9.60
2023-03-29T02:28:36.581Z,9.60
2023-03-29T02:29:38.353Z,9.50
2023-03-29T02:31:19.067Z,9.60
2023-03-29T02:32:40.588Z,9.60
2023-03-29T02:34:13.395Z,9.60
2023-03-29T02:35:23.390Z,9.70
2023-03-29T02:36:50.487Z,9.70
2023-03-29T02:37:57.583Z,9.70
2023-03-29T02:39:02.175Z,9.70
2023-03-29T02:40:08.064Z,9.80
2023-03-29T02:41:13.021Z,9.80
2023-03-29T02:42:20.696Z,9.80
2023-03-29T02:43:25.870Z,9.80
2023-03-29T02:44:31.373Z,9.80
2023-03-29T02:45:35.134Z,9.90
2023-03-29T02:46:38.401Z,9.90
2023-03-29T02:47:45.868Z,9.90
2023-03-29T02:48:49.874Z,9.90
2023-03-29T02:49:51.983Z,9.90
2023-03-29T02:50:59.865Z,9.90
2023-03-29T02:52:09.364Z,10.00
2023-03-29T02:53:21.104Z,10.00
2023-03-29T02:54:30.118Z,10.00
2023-03-29T02:55:34.890Z,10.00
2023-03-29T02:56:49.371Z,9.90
2023-03-29T02:57:51.605Z,9.90
2023-03-29T02:58:53.720Z,9.90
2023-03-29T02:59:57.275Z,9.90
2023-03-29T03:01:01.292Z,9.80
2023-03-29T03:02:03.560Z,9.80
2023-03-29T03:03:07.977Z,9.70
2023-03-29T03:04:11.055Z,9.80
2023-03-29T03:05:13.437Z,9.70
2023-03-29T03:06:15.598Z,9.70
2023-03-29T03:07:17.386Z,9.70
2023-03-29T03:08:19.868Z,9.70
2023-03-29T03:09:21.711Z,9.80
2023-03-29T03:10:23.725Z,9.80
2023-03-29T03:11:25.428Z,9.80
2023-03-29T03:12:27.225Z,9.80
2023-03-29T03:13:29.067Z,9.80
2023-03-29T03:14:30.884Z,9.80
2023-03-29T03:15:37.434Z,9.80
2023-03-29T03:16:39.622Z,9.80
2023-03-29T03:17:41.965Z,9.90
2023-03-29T03:18:45.974Z,9.90
2023-03-29T03:19:50.296Z,9.90
2023-03-29T03:20:59.303Z,9.90
2023-03-29T03:22:01.636Z,9.90
2023-03-29T03:23:03.650Z,9.90
2023-03-29T03:24:06.616Z,9.90
2023-03-29T03:25:10.490Z,9.90
2023-03-29T03:26:13.776Z,9.90
2023-03-29T03:27:15.618Z,9.90
2023-03-29T03:28:17.832Z,9.90
2023-03-29T03:29:19.671Z,9.90
2023-03-29T03:30:21.561Z,9.90
2023-03-29T03:31:23.254Z,9.90
2023-03-29T03:32:27.413Z,9.90
2023-03-29T03:33:29.443Z,9.90
2023-03-29T03:34:31.319Z,9.90
2023-03-29T03:35:33.218Z,9.90
2023-03-29T03:36:35.430Z,10.00
2023-03-29T03:37:38.380Z,10.00
2023-03-29T03:38:40.416Z,10.00
2023-03-29T03:39:42.251Z,10.00
2023-03-29T03:40:44.063Z,10.10
2023-03-29T03:41:46.332Z,10.10
2023-03-29T03:42:51.423Z,10.10
2023-03-29T03:43:53.506Z,10.20
2023-03-29T03:44:55.744Z,10.20
2023-03-29T03:45:57.826Z,10.20
2023-03-29T03:46:59.550Z,10.20
2023-03-29T03:48:01.554Z,10.20
2023-03-29T03:49:04.709Z,10.20
2023-03-29T03:50:07.394Z,10.20
2023-03-29T03:51:10.499Z,10.20
2023-03-29T03:52:12.624Z,10.20
2023-03-29T03:53:14.318Z,10.20
2023-03-29T03:54:16.295Z,10.20
2023-03-29T03:55:18.076Z,10.20
2023-03-29T03:56:20.492Z,10.20
2023-03-29T03:57:23.032Z,10.30
2023-03-29T03:58:25.125Z,10.30
2023-03-29T03:59:26.875Z,10.30
2023-03-29T04:00:30.054Z,10.30
2023-03-29T04:01:31.864Z,10.30
2023-03-29T04:02:33.654Z,10.30
2023-03-29T04:03:36.330Z,10.30
2023-03-29T04:04:39.404Z,10.20
2023-03-29T04:05:42.626Z,10.20
2023-03-29T04:06:44.476Z,10.20
2023-03-29T04:07:49.023Z,10.20
2023-03-29T04:08:50.940Z,10.20
2023-03-29T04:09:53.160Z,10.20
2023-03-29T04:10:56.883Z,10.20
2023-03-29T04:11:59.772Z,10.30
2023-03-29T04:13:05.402Z,10.30
2023-03-29T04:14:07.608Z,10.30
2023-03-29T04:15:12.253Z,10.50
2023-03-29T04:16:15.603Z,10.30
2023-03-29T04:17:17.395Z,10.30
2023-03-29T04:18:19.372Z,10.30
2023-03-29T04:19:21.868Z,10.30
2023-03-29T04:20:24.637Z,10.40
2023-03-29T04:21:26.338Z,10.40
2023-03-29T04:22:28.415Z,10.40
2023-03-29T04:23:31.079Z,10.40
2023-03-29T04:24:32.756Z,10.50
2023-03-29T04:25:35.654Z,10.50
2023-03-29T04:26:37.323Z,10.50
2023-03-29T04:27:39.499Z,10.50
2023-03-29T04:28:42.551Z,10.60
2023-03-29T04:29:44.916Z,10.60
2023-03-29T04:30:48.937Z,10.60
2023-03-29T04:31:50.997Z,10.60
2023-03-29T04:32:52.787Z,10.60
2023-03-29T04:33:54.484Z,10.70
2023-03-29T04:34:56.497Z,10.70
2023-03-29T04:35:58.317Z,10.70
2023-03-29T04:37:00.271Z,10.70
2023-03-29T04:38:04.545Z,10.70
2023-03-29T04:39:07.856Z,10.80
2023-03-29T04:40:14.272Z,10.70
2023-03-29T04:41:15.925Z,10.80
2023-03-29T04:42:18.168Z,10.80
2023-03-29T04:43:20.766Z,10.80
2023-03-29T04:44:22.431Z,10.80
2023-03-29T04:45:24.340Z,10.80
2023-03-29T04:46:26.756Z,10.80
2023-03-29T04:47:30.151Z,10.80
2023-03-29T04:48:32.613Z,10.80
2023-03-29T04:49:34.418Z,10.80
2023-03-29T04:50:36.574Z,10.80
2023-03-29T04:51:39.676Z,10.80
2023-03-29T04:52:41.370Z,10.80
2023-03-29T04:53:43.295Z,10.90
2023-03-29T04:54:46.013Z,10.90
2023-03-29T04:55:49.416Z,10.90
2023-03-29T04:56:52.506Z,10.90
2023-03-29T04:57:55.546Z,11.00
2023-03-29T04:58:58.414Z,11.00
2023-03-29T05:00:01.542Z,11.00
2023-03-29T05:01:04.172Z,11.00
2023-03-29T05:02:07.348Z,11.00
2023-03-29T05:03:11.787Z,11.10
2023-03-29T05:04:14.256Z,11.10
2023-03-29T05:05:16.204Z,11.10
2023-03-29T05:06:18.006Z,11.10
2023-03-29T05:07:20.170Z,11.10
2023-03-29T05:08:21.861Z,11.10
2023-03-29T05:09:25.933Z,11.10
2023-03-29T05:10:30.283Z,11.10
2023-03-29T05:11:32.050Z,11.10
2023-03-29T05:12:33.850Z,11.10
2023-03-29T05:13:36.745Z,11.10
2023-03-29T05:14:38.578Z,11.10
2023-03-29T05:15:42.085Z,11.10
2023-03-29T05:16:44.322Z,11.20
2023-03-29T05:17:46.631Z,11.20
2023-03-29T05:18:48.439Z,11.20
2023-03-29T05:19:50.341Z,11.20
2023-03-29T05:20:53.143Z,11.20
2023-03-29T05:21:55.053Z,11.20
2023-03-29T05:22:56.816Z,11.20
2023-03-29T05:23:58.939Z,11.20
2023-03-29T05:25:00.745Z,11.20
2023-03-29T05:26:02.739Z,11.30
2023-03-29T05:27:04.893Z,11.30
2023-03-29T05:28:06.579Z,11.30
2023-03-29T05:29:09.140Z,11.30
2023-03-29T05:30:12.319Z,11.30
2023-03-29T05:31:16.709Z,11.30
2023-03-29T05:32:18.786Z,11.30
2023-03-29T05:33:21.610Z,11.30
2023-03-29T05:34:23.435Z,11.30
2023-03-29T05:35:26.469Z,11.30
2023-03-29T05:36:28.333Z,11.30
2023-03-29T05:37:31.742Z,11.30
2023-03-29T05:38:34.316Z,11.30
2023-03-29T05:39:37.773Z,11.30
2023-03-29T05:40:40.401Z,11.30
2023-03-29T05:41:43.883Z,11.40
2023-03-29T05:42:46.938Z,11.40
2023-03-29T05:43:50.149Z,11.40
2023-03-29T05:44:54.424Z,11.30
2023-03-29T05:45:56.917Z,11.40
2023-03-29T05:47:00.006Z,11.40
2023-03-29T05:48:03.759Z,11.40
2023-03-29T05:49:06.479Z,11.40
2023-03-29T05:50:09.701Z,11.40
2023-03-29T05:51:11.362Z,11.40
2023-03-29T05:52:14.563Z,11.40
2023-03-29T05:53:17.712Z,11.40
2023-03-29T05:54:19.473Z,11.50
2023-03-29T05:55:25.307Z,11.50
2023-03-29T05:56:40.365Z,11.50
2023-03-29T05:57:42.050Z,11.50
2023-03-29T05:58:44.169Z,11.50
2023-03-29T05:59:46.868Z,11.50
2023-03-29T06:00:49.774Z,11.50
2023-03-29T06:01:52.026Z,11.50
2023-03-29T06:02:53.846Z,11.50
2023-03-29T06:03:57.359Z,11.50
2023-03-29T06:05:00.222Z,11.60
2023-03-29T06:06:03.871Z,11.60
2023-03-29T06:07:05.749Z,11.60
2023-03-29T06:08:07.428Z,11.60
2023-03-29T06:09:10.841Z,11.60
2023-03-29T06:10:12.943Z,11.60
2023-03-29T06:11:17.100Z,11.60
2023-03-29T06:12:20.455Z,11.60
2023-03-29T06:13:23.052Z,11.60
2023-03-29T06:14:27.196Z,11.60
2023-03-29T06:15:30.526Z,11.60
2023-03-29T06:16:32.548Z,11.60
2023-03-29T06:17:34.618Z,11.70
2023-03-29T06:18:40.430Z,11.70
2023-03-29T06:19:44.554Z,11.70
2023-03-29T06:20:57.157Z,11.70
2023-03-29T06:22:00.204Z,11.70
2023-03-29T06:23:02.204Z,11.80
2023-03-29T06:24:04.587Z,11.80
2023-03-29T06:25:08.355Z,11.80
2023-03-29T06:26:11.030Z,11.80
2023-03-29T06:27:12.850Z,11.90
2023-03-29T06:28:18.524Z,11.90
2023-03-29T06:29:22.183Z,11.90
2023-03-29T06:30:27.134Z,12.10
2023-03-29T06:31:32.097Z,11.90
2023-03-29T06:32:36.176Z,11.90
2023-03-29T06:33:38.609Z,11.90
2023-03-29T06:34:42.421Z,11.90
2023-03-29T06:35:47.337Z,11.90
2023-03-29T06:36:50.976Z,11.90
2023-03-29T06:37:54.502Z,11.90
2023-03-29T06:38:56.719Z,12.00
2023-03-29T06:39:59.786Z,12.00
2023-03-29T06:41:07.008Z,12.00
2023-03-29T06:42:20.170Z,12.00
2023-03-29T06:43:23.055Z,12.00
2023-03-29T06:44:25.563Z,12.10
2023-03-29T06:45:29.569Z,12.10
2023-03-29T06:46:31.731Z,12.10
2023-03-29T06:47:34.773Z,12.10
2023-03-29T06:48:36.665Z,12.10
2023-03-29T06:49:38.368Z,12.20
2023-03-29T06:50:40.109Z,12.20
2023-03-29T06:51:42.000Z,12.20
2023-03-29T06:52:44.948Z,12.20
2023-03-29T06:53:46.610Z,12.30
2023-03-29T06:54:48.313Z,12.30
2023-03-29T06:55:51.964Z,12.30
2023-03-29T06:56:53.760Z,12.30
2023-03-29T06:57:55.588Z,12.40
2023-03-29T06:58:57.330Z,12.40
2023-03-29T06:59:59.557Z,12.40
2023-03-29T07:01:02.668Z,12.40
2023-03-29T07:02:04.596Z,12.40
2023-03-29T07:03:10.644Z,12.40
2023-03-29T07:04:12.595Z,12.50
2023-03-29T07:05:14.799Z,12.50
2023-03-29T07:06:17.949Z,12.40
2023-03-29T07:07:22.793Z,12.50
2023-03-29T07:08:31.280Z,12.40
2023-03-29T07:09:33.536Z,12.40
2023-03-29T07:10:42.872Z,12.50
2023-03-29T07:11:44.665Z,12.50
2023-03-29T07:12:46.432Z,12.50
2023-03-29T07:13:49.369Z,12.50
2023-03-29T07:14:53.819Z,12.60
2023-03-29T07:15:56.753Z,12.60
2023-03-29T07:16:58.996Z,12.60
2023-03-29T07:18:03.627Z,12.70
2023-03-29T07:19:05.582Z,12.70
2023-03-29T07:20:14.911Z,12.70
2023-03-29T07:21:17.375Z,12.70
2023-03-29T07:22:21.264Z,12.70
2023-03-29T07:23:23.215Z,12.70
2023-03-29T07:24:26.740Z,12.80
2023-03-29T07:25:30.285Z,12.80
2023-03-29T07:26:33.277Z,12.80
2023-03-29T07:27:37.278Z,12.80
2023-03-29T07:28:40.581Z,12.80
2023-03-29T07:29:43.805Z,12.90
2023-03-29T07:30:45.923Z,12.90
2023-03-29T07:31:50.156Z,12.90
2023-03-29T07:32:52.407Z,12.90
2023-03-29T07:33:54.324Z,12.90
2023-03-29T07:34:56.732Z,12.90
2023-03-29T07:35:59.234Z,12.90
2023-03-29T07:37:02.589Z,12.90
2023-03-29T07:38:05.949Z,12.90
2023-03-29T07:39:09.269Z,12.90
2023-03-29T07:40:16.256Z,13.00
2023-03-29T07:41:18.348Z,13.00
2023-03-29T07:42:20.100Z,13.00
2023-03-29T07:43:21.871Z,13.00
2023-03-29T07:44:25.078Z,13.00
2023-03-29T07:45:31.341Z,13.00
2023-03-29T07:46:38.204Z,13.00
2023-03-29T07:47:42.424Z,13.00
2023-03-29T07:48:44.159Z,13.00
2023-03-29T07:49:46.556Z,13.10
2023-03-29T07:50:48.241Z,13.10
2023-03-29T07:51:49.957Z,13.10
2023-03-29T07:52:51.683Z,13.10
2023-03-29T07:53:53.622Z,13.10
2023-03-29T07:54:56.845Z,13.10
2023-03-29T07:56:00.707Z,13.10
2023-03-29T07:57:04.915Z,13.10
2023-03-29T07:58:06.697Z,13.10
2023-03-29T07:59:08.847Z,13.10
2023-03-29T08:00:16.311Z,13.10
2023-03-29T08:01:19.929Z,13.20
2023-03-29T08:02:22.442Z,13.20
2023-03-29T08:03:24.317Z,13.20
2023-03-29T08:04:26.689Z,13.20
2023-03-29T08:05:40.116Z,13.30
2023-03-29T08:06:43.716Z,13.30
2023-03-29T08:07:47.060Z,13.30
2023-03-29T08:08:48.814Z,13.40
2023-03-29T08:09:50.703Z,13.40
2023-03-29T08:10:54.165Z,13.40
2023-03-29T08:11:55.994Z,13.50
2023-03-29T08:12:58.194Z,13.50
2023-03-29T08:13:59.994Z,13.50
2023-03-29T08:15:01.945Z,13.60
2023-03-29T08:16:04.393Z,13.60
2023-03-29T08:17:07.355Z,13.60
2023-03-29T08:18:09.371Z,13.70
2023-03-29T08:19:13.336Z,13.70
2023-03-29T08:20:18.580Z,13.70
2023-03-29T08:21:20.620Z,13.80
2023-03-29T08:22:22.818Z,13.80
2023-03-29T08:23:24.742Z,13.80
2023-03-29T08:24:26.732Z,13.90
2023-03-29T08:25:28.899Z,13.90
2023-03-29T08:26:30.856Z,13.90
2023-03-29T08:27:37.216Z,13.90
2023-03-29T08:28:38.870Z,13.90
2023-03-29T08:29:40.613Z,13.90
2023-03-29T08:30:42.511Z,14.00
2023-03-29T08:31:44.270Z,14.00
2023-03-29T08:32:49.289Z,14.00
2023-03-29T08:33:53.401Z,14.00
2023-03-29T08:34:55.217Z,13.90
2023-03-29T08:35:57.218Z,13.90
2023-03-29T08:36:59.118Z,13.90
2023-03-29T08:38:00.815Z,13.90
2023-03-29T08:39:03.391Z,13.90
2023-03-29T08:40:07.029Z,13.90
2023-03-29T08:41:18.657Z,14.00
2023-03-29T08:42:32.270Z,14.00
2023-03-29T08:44:01.567Z,14.00
2023-03-29T08:45:20.511Z,14.00
2023-03-29T08:46:34.386Z,14.00
2023-03-29T08:47:42.091Z,14.00
2023-03-29T08:48:53.663Z,13.90
2023-03-29T08:49:56.776Z,13.90
2023-03-29T08:51:03.715Z,13.90
2023-03-29T08:52:14.019Z,13.90
2023-03-29T08:53:40.611Z,13.90
2023-03-29T08:54:48.661Z,13.90
2023-03-29T08:55:53.017Z,13.90
2023-03-29T08:57:02.429Z,13.90
2023-03-29T08:58:07.637Z,13.90
2023-03-29T08:59:20.615Z,13.90
2023-03-29T09:00:44.801Z,13.90
2023-03-29T09:01:50.742Z,13.90
2023-03-29T09:02:54.617Z,13.90
2023-03-29T09:04:04.891Z,13.90
2023-03-29T09:05:28.874Z,13.90
2023-03-29T09:06:30.955Z,13.80
2023-03-29T09:07:32.801Z,13.80
2023-03-29T09:08:42.051Z,13.80
2023-03-29T09:09:44.063Z,13.80
2023-03-29T09:11:17.303Z,13.80
2023-03-29T09:12:44.498Z,13.90
2023-03-29T09:13:57.071Z,13.90
2023-03-29T09:15:03.382Z,13.90
2023-03-29T09:16:28.075Z,13.90
2023-03-29T09:17:40.439Z,14.00
2023-03-29T09:19:07.203Z,14.00
2023-03-29T09:20:26.461Z,14.10
2023-03-29T09:21:46.793Z,14.00
2023-03-29T09:22:58.847Z,14.00
2023-03-29T09:24:10.126Z,14.10
2023-03-29T09:25:26.594Z,14.10
2023-03-29T09:26:48.890Z,14.10
2023-03-29T09:28:14.349Z,14.00
2023-03-29T09:29:48.001Z,14.10
2023-03-29T09:31:04.362Z,14.10
2023-03-29T09:32:22.675Z,14.10
2023-03-29T09:33:53.688Z,14.10
2023-03-29T09:35:22.586Z,14.10
2023-03-29T09:36:34.857Z,14.10
2023-03-29T09:37:39.819Z,14.10
2023-03-29T09:38:44.125Z,14.20
2023-03-29T09:39:45.917Z,14.20
2023-03-29T09:40:53.247Z,14.20
2023-03-29T09:42:05.357Z,14.20
2023-03-29T09:43:10.574Z,14.20
2023-03-29T09:44:29.859Z,14.20
2023-03-29T09:45:38.620Z,14.30
2023-03-29T09:46:55.997Z,14.30
2023-03-29T09:48:13.745Z,14.40
2023-03-29T09:49:24.978Z,14.40
2023-03-29T09:50:35.247Z,14.50
2023-03-29T09:51:38.735Z,14.60
2023-03-29T09:52:41.030Z,14.60
2023-03-29T09:53:42.692Z,14.60
2023-03-29T09:54:44.744Z,14.60
2023-03-29T09:55:50.369Z,14.60
2023-03-29T09:56:52.987Z,14.60
2023-03-29T09:57:58.490Z,14.60
2023-03-29T09:59:00.861Z,14.70
2023-03-29T10:00:05.990Z,14.70
2023-03-29T10:01:12.969Z,14.70
2023-03-29T10:02:19.259Z,14.70
2023-03-29T10:03:26.392Z,14.80
2023-03-29T10:04:28.099Z,14.80
2023-03-29T10:05:32.599Z,14.80
2023-03-29T10:06:35.562Z,14.80
2023-03-29T10:07:45.638Z,14.90
2023-03-29T10:08:55.380Z,14.90
2023-03-29T10:09:57.552Z,15.00
2023-03-29T10:11:00.864Z,15.00
2023-03-29T10:12:06.816Z,15.00
2023-03-29T10:13:26.675Z,15.10
2023-03-29T10:14:35.227Z,15.10
2023-03-29T10:15:37.123Z,15.20
2023-03-29T10:16:42.232Z,15.30
2023-03-29T10:17:46.456Z,15.30
2023-03-29T10:18:50.296Z,15.40
2023-03-29T10:20:04.079Z,15.50
2023-03-29T10:21:07.396Z,15.60
2023-03-29T10:22:19.447Z,15.60
2023-03-29T10:23:21.227Z,15.70
2023-03-29T10:24:25.937Z,15.70
2023-03-29T10:25:31.428Z,15.70
2023-03-29T10:26:34.823Z,15.70
2023-03-29T10:27:38.312Z,15.70
2023-03-29T10:28:40.163Z,15.70
2023-03-29T10:29:44.348Z,15.80
2023-03-29T10:30:52.406Z,15.80
2023-03-29T10:31:54.716Z,15.80
2023-03-29T10:32:59.824Z,15.90
2023-03-29T10:34:05.170Z,15.90
2023-03-29T10:35:16.695Z,15.90
2023-03-29T10:36:20.114Z,16.00
2023-03-29T10:37:23.320Z,15.90
2023-03-29T10:38:28.896Z,15.90
2023-03-29T10:39:34.741Z,15.90
2023-03-29T10:40:43.258Z,15.90
2023-03-29T10:41:45.599Z,15.90
2023-03-29T10:42:49.998Z,15.80
2023-03-29T10:43:51.715Z,15.90
2023-03-29T10:44:58.863Z,15.90
2023-03-29T10:46:11.740Z,15.90
2023-03-29T10:47:20.461Z,15.90
2023-03-29T10:48:28.894Z,15.90
2023-03-29T10:49:31.239Z,16.00
2023-03-29T10:50:38.617Z,16.00
2023-03-29T10:51:51.621Z,16.00
2023-03-29T10:52:53.524Z,16.10
2023-03-29T10:53:57.632Z,16.10
2023-03-29T10:55:00.615Z,16.10
2023-03-29T10:56:18.619Z,16.20
2023-03-29T10:57:45.731Z,16.30
2023-03-29T10:59:22.910Z,16.40
2023-03-29T11:01:07.994Z,16.40
2023-03-29T11:02:15.745Z,16.40
2023-03-29T11:03:41.752Z,16.40
2023-03-29T11:05:10.614Z,16.50
2023-03-29T11:06:31.972Z,16.40
2023-03-29T11:08:11.258Z,16.50
2023-03-29T11:09:33.210Z,16.50
2023-03-29T11:10:50.034Z,16.50
2023-03-29T11:12:21.058Z,16.50
2023-03-29T11:14:01.191Z,16.60
2023-03-29T11:15:26.440Z,16.60
2023-03-29T11:16:42.156Z,16.60
2023-03-29T11:18:05.341Z,16.70
2023-03-29T11:19:20.377Z,16.60
2023-03-29T11:20:48.501Z,16.70
2023-03-29T11:21:54.010Z,16.70
2023-03-29T11:23:16.694Z,16.70
2023-03-29T11:24:43.392Z,16.70
2023-03-29T11:26:10.724Z,16.70
2023-03-29T11:28:06.660Z,16.70
2023-03-29T11:29:22.950Z,16.70
2023-03-29T11:30:42.133Z,16.80
2023-03-29T11:32:16.233Z,16.90
2023-03-29T11:33:31.158Z,17.00
2023-03-29T11:36:45.177Z,17.20
2023-03-29T11:38:20.981Z,17.30
2023-03-29T11:39:37.805Z,17.40
2023-03-29T11:40:57.750Z,17.40
2023-03-29T11:42:07.911Z,17.40
2023-03-29T11:43:17.227Z,17.40
2023-03-29T11:44:30.137Z,17.50
2023-03-29T11:45:50.580Z,17.50
2023-03-29T11:47:01.170Z,17.50
2023-03-29T11:48:07.936Z,17.50
2023-03-29T11:51:13.547Z,17.60
2023-03-29T11:52:22.486Z,17.60
2023-03-29T11:53:37.742Z,17.60
2023-03-29T11:54:45.564Z,17.60
2023-03-29T11:55:48.246Z,17.60
2023-03-29T11:57:06.002Z,17.60
2023-03-29T11:58:32.187Z,17.60
2023-03-29T11:59:41.875Z,17.70
2023-03-29T12:00:52.752Z,17.70
2023-03-29T12:02:02.050Z,17.70
2023-03-29T12:03:15.422Z,17.80
2023-03-29T12:04:33.759Z,17.80
2023-03-29T12:05:45.730Z,17.90
2023-03-29T12:06:58.327Z,17.90
2023-03-29T12:08:07.444Z,17.90
2023-03-29T12:09:38.735Z,18.00
2023-03-29T12:11:04.569Z,18.10
2023-03-29T12:12:21.598Z,18.20
2023-03-29T12:13:34.589Z,18.30
2023-03-29T12:14:42.853Z,18.40
2023-03-29T12:15:52.723Z,18.40
2023-03-29T12:17:04.387Z,18.50
2023-03-29T12:18:32.420Z,18.50
2023-03-29T12:20:00.430Z,18.50
2023-03-29T12:21:12.496Z,18.60
2023-03-29T12:22:15.838Z,18.60
2023-03-29T12:23:19.218Z,18.60
2023-03-29T12:24:21.705Z,18.60
2023-03-29T12:25:52.472Z,18.70
2023-03-29T12:27:17.171Z,18.70
2023-03-29T12:28:35.765Z,18.80
2023-03-29T12:29:51.396Z,18.80
2023-03-29T12:30:53.088Z,18.80
2023-03-29T12:32:26.651Z,18.80
2023-03-29T12:33:57.493Z,18.90
2023-03-29T12:35:05.261Z,18.90
2023-03-29T12:36:22.182Z,19.00
2023-03-29T12:37:48.358Z,19.00
2023-03-29T12:38:52.745Z,19.00
2023-03-29T12:39:54.657Z,19.10
2023-03-29T12:41:02.624Z,19.10
2023-03-29T12:42:19.056Z,19.20
2023-03-29T12:43:32.607Z,19.10
2023-03-29T12:44:35.700Z,19.20
2023-03-29T12:45:45.305Z,19.00
2023-03-29T12:46:51.622Z,18.90
2023-03-29T12:47:54.117Z,18.80
2023-03-29T12:49:09.574Z,18.70
2023-03-29T12:50:25.500Z,18.60
2023-03-29T12:51:33.164Z,18.60
2023-03-29T12:52:36.574Z,18.50
2023-03-29T12:53:44.718Z,18.40
2023-03-29T12:54:55.504Z,18.40
2023-03-29T12:56:04.205Z,18.30
2023-03-29T12:57:26.116Z,18.30
2023-03-29T12:58:40.277Z,18.30
2023-03-29T12:59:50.196Z,18.20
2023-03-29T13:01:24.682Z,18.20
2023-03-29T13:02:34.923Z,18.20
2023-03-29T13:03:39.828Z,18.10
2023-03-29T13:04:50.815Z,18.10
2023-03-29T13:06:05.551Z,18.10
2023-03-29T13:07:26.598Z,18.00
2023-03-29T13:08:38.777Z,18.00
2023-03-29T13:10:20.820Z,17.90
2023-03-29T13:11:34.547Z,17.90
2023-03-29T13:12:43.887Z,17.80
2023-03-29T13:13:45.582Z,17.80
2023-03-29T13:14:53.399Z,17.80
2023-03-29T13:15:57.307Z,17.90
2023-03-29T13:17:18.378Z,17.90
2023-03-29T13:18:46.870Z,17.90
2023-03-29T13:20:26.311Z,18.00
2023-03-29T13:21:33.660Z,18.00
2023-03-29T13:22:46.097Z,17.90
2023-03-29T13:24:01.926Z,17.90
2023-03-29T13:25:25.049Z,17.80
2023-03-29T13:26:29.649Z,17.90
2023-03-29T13:27:45.092Z,17.90
2023-03-29T13:29:05.230Z,17.90
2023-03-29T13:30:31.714Z,18.00
2023-03-29T13:31:41.715Z,18.00
2023-03-29T13:32:48.789Z,18.00
2023-03-29T13:34:03.308Z,18.00
2023-03-29T13:35:10.776Z,18.10
2023-03-29T13:36:37.946Z,18.10
2023-03-29T13:38:03.681Z,18.10
2023-03-29T13:39:07.376Z,18.20
2023-03-29T13:40:32.530Z,18.20
2023-03-29T13:41:40.313Z,18.20
2023-03-29T13:42:42.474Z,18.10
2023-03-29T13:43:44.654Z,18.10
2023-03-29T13:44:49.206Z,18.10
2023-03-29T13:45:57.031Z,18.10
2023-03-29T13:47:04.935Z,18.00
2023-03-29T13:48:41.939Z,18.00
2023-03-29T13:49:51.543Z,18.00
2023-03-29T13:50:58.862Z,17.90
2023-03-29T13:52:25.043Z,17.90
2023-03-29T13:53:48.403Z,17.90
2023-03-29T13:55:08.757Z,17.80
2023-03-29T13:56:17.585Z,17.80
2023-03-29T13:57:23.494Z,17.80
2023-03-29T13:58:46.978Z,17.80
2023-03-29T13:59:59.163Z,17.80
2023-03-29T14:01:28.406Z,17.70
2023-03-29T14:02:50.259Z,17.60
2023-03-29T14:03:53.711Z,17.50
2023-03-29T14:04:57.188Z,17.30
2023-03-29T14:06:03.334Z,17.20
2023-03-29T14:07:08.207Z,17.10
2023-03-29T14:08:29.973Z,16.90
2023-03-29T14:09:36.163Z,16.70
2023-03-29T14:10:43.531Z,16.60
2023-03-29T14:11:47.429Z,16.50
2023-03-29T14:12:49.834Z,16.30
2023-03-29T14:13:57.762Z,16.20
2023-03-29T14:15:03.858Z,16.10
2023-03-29T14:16:11.098Z,16.00
2023-03-29T14:17:21.998Z,16.00
2023-03-29T14:18:26.505Z,15.90
2023-03-29T14:19:33.284Z,15.90
2023-03-29T14:20:35.108Z,15.80
2023-03-29T14:21:37.551Z,15.80
2023-03-29T14:22:43.663Z,15.80
2023-03-29T14:23:47.785Z,15.90
2023-03-29T14:24:54.380Z,15.90
2023-03-29T14:26:05.585Z,15.90
2023-03-29T14:27:14.052Z,16.00
2023-03-29T14:28:25.732Z,16.00
2023-03-29T14:29:34.630Z,16.00
2023-03-29T14:30:36.298Z,16.10
2023-03-29T14:31:40.961Z,16.10
2023-03-29T14:32:42.820Z,16.20
2023-03-29T14:33:44.866Z,16.20
2023-03-29T14:34:51.211Z,16.30
2023-03-29T14:35:58.209Z,16.30
2023-03-29T14:37:00.101Z,16.40
2023-03-29T14:38:02.297Z,16.40
2023-03-29T14:39:24.140Z,16.40